Terminal Aerodrome Forecast
Issued by NWS Duluth, MN

Home | Current Version | Previous Version | Text Only | Print | Product List | Glossary On
Versions: 1 2 3 4 5 6 7 8 9 10 11 12 13 14 15
757
FTUS43 KDLH 240524
TAFINL
TAF
KINL 240524Z 2406/2506 VRB04KT P6SM SCT110 BKN200
     FM240800 36004KT P6SM BKN060
     FM241300 33011G17KT P6SM SCT030
     FM242300 35009KT P6SM SCT030
     FM250100 VRB03KT P6SM SKC=

USA.gov is the U.S. government's official web portal to all federal, state and local government web resources and services.